HESH/SSH METAR and TAF weather

Enter ICAO airport designator
Station Type Date Time Source
HESH METAR 2018/10/21 05:00 UTC NOAA

HESH 210500Z 36007KT CAVOK 25/20 Q1012 NOSIG


Station Type Date Time Source
HESH Decoded METAR 2018/10/21 05:00 UTC NOAA

Sharm El Sheikhintl, Egypt (HESH) 27-58N 034-23E
Oct 21, 2018 - 01:00 AM EDT / 2018.10.21 0500 UTC
Wind: from the N (360 degrees) at 8 MPH (7 KT):0
Visibility: greater than 7 mile(s):0
Temperature: 77 F (25 C)
Dew Point: 68 F (20 C)
Relative Humidity: 73%
Pressure (altimeter): 29.88 in. Hg (1012 hPa)
ob: HESH 210500Z 36007KT CAVOK 25/20 Q1012 NOSIG
cycle: 5

Station Type Date Time Source
HESH TAF 2018/10/21 06:03 UTC NOAA

TAF HESH 210500Z 2106/2212 03014KT CAVOK
BECMG 2110/2112 14012KT


Example: see airport list